High Blantyre, United Kingdom
Current Conditions -  °F | °C
As of 9:20 AM on Wednesday 28 Jan 2015 (Local Time) from EGPF Reporting Station
Scattered Clouds Scattered Clouds  
Wind Chill: 27°   Ceiling: Unl
Heat Index: 36°   Visibility: 6mi
Dew Point: 30°   Wind: 14mph
Humidity: 81%   Direction: 260°W
Pressure: 29.23"   Gusts: NA
Location:  55.78°N, 4.1°W
Report Text: EGPF 280920Z AUTO 26012KT 9999 FEW018/// SCT039/// //////TCU 02/M01 Q0990 RERA
Loading
Personal Weather Stations






























Interactive Weather Map New forecast layout! Learn more

10-Day Weather Forecast

Advertisements
Track Severe Weather on mobile